createdAt,value
2023-02-21T00:02:02.437Z,99118.08
2023-02-21T00:04:52.193Z,99117.12
2023-02-21T00:07:42.798Z,99118.83
2023-02-21T00:10:34.964Z,99117.15
2023-02-21T00:13:24.622Z,99118.77
2023-02-21T00:16:14.589Z,99117.61
2023-02-21T00:19:05.027Z,99111.16
2023-02-21T00:21:55.164Z,99110.70
2023-02-21T00:24:45.008Z,99125.41
2023-02-21T00:27:34.951Z,99115.63
2023-02-21T00:30:26.406Z,99118.15
2023-02-21T00:33:16.116Z,99113.34
2023-02-21T00:36:05.936Z,99113.16
2023-02-21T00:38:57.847Z,99110.52
2023-02-21T00:41:48.061Z,99112.25
2023-02-21T00:44:37.500Z,99110.33
2023-02-21T00:47:28.099Z,99110.59
2023-02-21T00:50:19.427Z,99105.35
2023-02-21T00:53:09.582Z,99111.61
2023-02-21T00:55:59.601Z,99109.36
2023-02-21T00:58:49.548Z,99115.81
2023-02-21T01:01:39.154Z,99112.80
2023-02-21T01:04:29.310Z,99112.59
2023-02-21T01:07:21.478Z,99117.79
2023-02-21T01:10:11.554Z,99119.49
2023-02-21T01:13:01.391Z,99112.27
2023-02-21T01:15:51.996Z,99111.47
2023-02-21T01:18:42.395Z,99111.04
2023-02-21T01:21:34.550Z,99114.34
2023-02-21T01:24:25.860Z,99112.98
2023-02-21T01:27:15.991Z,99109.50
2023-02-21T01:30:06.695Z,99108.71
2023-02-21T01:32:56.876Z,99102.80
2023-02-21T01:35:46.492Z,99104.64
2023-02-21T01:38:35.910Z,99103.89
2023-02-21T01:41:25.853Z,99099.85
2023-02-21T01:44:20.581Z,99096.11
2023-02-21T01:47:10.839Z,99100.38
2023-02-21T01:50:01.565Z,99094.10
2023-02-21T01:52:51.529Z,99092.30
2023-02-21T01:55:42.424Z,99091.19
2023-02-21T01:58:32.754Z,99089.37
2023-02-21T02:01:22.543Z,99089.77
2023-02-21T02:04:12.266Z,99093.56
2023-02-21T02:07:01.892Z,99094.53
2023-02-21T02:09:53.375Z,99095.77
2023-02-21T02:12:43.031Z,99096.55
2023-02-21T02:15:29.969Z,99098.65
2023-02-21T02:18:31.227Z,99104.14
2023-02-21T02:21:42.515Z,99111.42
2023-02-21T02:24:36.598Z,99104.73
2023-02-21T02:27:43.159Z,99107.09
2023-02-21T02:30:44.741Z,99100.53
2023-02-21T02:33:55.397Z,99106.47
2023-02-21T02:36:31.767Z,99107.48
2023-02-21T02:39:12.640Z,99108.29
2023-02-21T02:41:55.700Z,99105.21
2023-02-21T02:44:37.873Z,99110.02
2023-02-21T02:47:15.581Z,99109.92
2023-02-21T02:49:49.480Z,99113.36
2023-02-21T02:52:21.804Z,99110.52
2023-02-21T02:55:03.117Z,99103.64
2023-02-21T02:57:41.213Z,99109.09
2023-02-21T03:00:16.984Z,99100.59
2023-02-21T03:03:09.242Z,99105.39
2023-02-21T03:05:52.363Z,99104.20
2023-02-21T03:08:35.000Z,99101.61
2023-02-21T03:11:16.306Z,99101.77
2023-02-21T03:13:54.946Z,99101.47
2023-02-21T03:16:30.927Z,99097.92
2023-02-21T03:19:09.026Z,99098.16
2023-02-21T03:21:47.939Z,99098.27
2023-02-21T03:24:24.228Z,99098.09
2023-02-21T03:27:00.842Z,99089.92
2023-02-21T03:29:55.249Z,99090.25
2023-02-21T03:32:33.405Z,99091.80
2023-02-21T03:35:08.663Z,99087.27
2023-02-21T03:37:43.674Z,99099.16
2023-02-21T03:40:21.479Z,99106.07
2023-02-21T03:42:57.917Z,99097.81
2023-02-21T03:45:30.848Z,99098.77
2023-02-21T03:48:31.071Z,99093.06
2023-02-21T03:51:06.618Z,99088.73
2023-02-21T03:53:41.808Z,99089.34
2023-02-21T03:56:14.490Z,99094.81
2023-02-21T03:58:59.619Z,99095.80
2023-02-21T04:01:32.221Z,99099.67
2023-02-21T04:04:05.379Z,99099.63
2023-02-21T04:06:37.651Z,99100.02
2023-02-21T04:09:09.803Z,99108.92
2023-02-21T04:11:45.877Z,99106.90
2023-02-21T04:14:18.215Z,99105.38
2023-02-21T04:16:50.504Z,99101.08
2023-02-21T04:19:23.163Z,99111.10
2023-02-21T04:21:55.497Z,99113.69
2023-02-21T04:24:29.884Z,99111.42
2023-02-21T04:27:04.681Z,99108.83
2023-02-21T04:29:39.812Z,99108.02
2023-02-21T04:32:12.926Z,99103.16
2023-02-21T04:34:45.110Z,99106.17
2023-02-21T04:37:17.841Z,99104.27
2023-02-21T04:39:50.498Z,99105.02
2023-02-21T04:42:22.821Z,99105.83
2023-02-21T04:45:00.056Z,99115.68
2023-02-21T04:47:33.843Z,99111.03
2023-02-21T04:50:06.812Z,99118.14
2023-02-21T04:52:41.092Z,99126.98
2023-02-21T04:55:13.212Z,99131.10
2023-02-21T04:57:45.427Z,99130.22
2023-02-21T05:00:18.791Z,99136.66
2023-02-21T05:02:50.847Z,99142.60
2023-02-21T05:05:23.715Z,99140.39
2023-02-21T05:07:56.478Z,99145.72
2023-02-21T05:10:44.843Z,99142.09
2023-02-21T05:13:18.018Z,99142.30
2023-02-21T05:15:50.684Z,99141.55
2023-02-21T05:18:26.974Z,99131.77
2023-02-21T05:21:03.198Z,99131.85
2023-02-21T05:23:36.948Z,99135.58
2023-02-21T05:26:11.573Z,99138.45
2023-02-21T05:28:47.006Z,99134.41
2023-02-21T05:31:19.792Z,99138.08
2023-02-21T05:33:52.239Z,99144.85
2023-02-21T05:36:25.943Z,99148.14
2023-02-21T05:38:59.393Z,99149.93
2023-02-21T05:41:31.337Z,99154.30
2023-02-21T05:44:05.405Z,99155.95
2023-02-21T05:46:37.973Z,99157.46
2023-02-21T05:49:10.241Z,99152.45
2023-02-21T05:51:45.038Z,99154.27
2023-02-21T05:54:21.397Z,99158.41
2023-02-21T05:56:54.511Z,99156.23
2023-02-21T05:59:26.752Z,99165.22
2023-02-21T06:02:01.394Z,99164.12
2023-02-21T06:04:33.341Z,99163.88
2023-02-21T06:07:05.531Z,99163.41
2023-02-21T06:09:37.832Z,99157.86
2023-02-21T06:12:10.211Z,99160.59
2023-02-21T06:14:42.239Z,99166.17
2023-02-21T06:17:14.336Z,99168.64
2023-02-21T06:19:46.332Z,99174.64
2023-02-21T06:22:18.368Z,99173.39
2023-02-21T06:24:52.115Z,99164.34
2023-02-21T06:27:24.495Z,99164.61
2023-02-21T06:29:56.566Z,99163.34
2023-02-21T06:32:29.783Z,99168.63
2023-02-21T06:35:04.871Z,99172.78
2023-02-21T06:37:37.218Z,99183.29
2023-02-21T06:40:10.243Z,99189.15
2023-02-21T06:42:42.381Z,99188.30
2023-02-21T06:45:14.713Z,99189.06
2023-02-21T06:47:46.764Z,99184.08
2023-02-21T06:50:19.860Z,99181.61
2023-02-21T06:52:52.680Z,99190.25
2023-02-21T06:55:25.962Z,99186.71
2023-02-21T06:58:00.352Z,99191.04
2023-02-21T07:00:32.568Z,99196.25
2023-02-21T07:03:05.020Z,99205.19
2023-02-21T07:05:38.695Z,99207.45
2023-02-21T07:08:10.739Z,99215.13
2023-02-21T07:10:43.129Z,99222.63
2023-02-21T07:13:15.557Z,99226.23
2023-02-21T07:15:47.805Z,99228.54
2023-02-21T07:18:19.917Z,99227.94
2023-02-21T07:20:52.269Z,99237.45
2023-02-21T07:23:24.319Z,99250.84
2023-02-21T07:25:56.450Z,99256.66
2023-02-21T07:28:30.927Z,99269.46
2023-02-21T07:31:04.310Z,99268.11
2023-02-21T07:33:36.473Z,99274.18
2023-02-21T07:36:09.568Z,99278.70
2023-02-21T07:38:41.593Z,99278.59
2023-02-21T07:41:15.654Z,99288.67
2023-02-21T07:43:47.856Z,99290.58
2023-02-21T07:46:20.366Z,99302.75
2023-02-21T07:48:52.587Z,99304.59
2023-02-21T07:51:28.434Z,99310.04
2023-02-21T07:54:00.666Z,99315.85
2023-02-21T07:56:32.872Z,99324.67
2023-02-21T07:59:05.074Z,99330.65
2023-02-21T08:01:37.504Z,99332.61
2023-02-21T08:04:09.803Z,99331.39
2023-02-21T08:06:42.250Z,99332.14
2023-02-21T08:09:14.372Z,99331.10
2023-02-21T08:11:46.510Z,99330.16
2023-02-21T08:14:18.564Z,99340.22
2023-02-21T08:16:50.734Z,99344.27
2023-02-21T08:19:22.916Z,99344.66
2023-02-21T08:21:55.282Z,99350.39
2023-02-21T08:24:27.586Z,99352.03
2023-02-21T08:27:03.196Z,99355.81
2023-02-21T08:29:35.382Z,99359.20
2023-02-21T08:32:07.972Z,99366.83
2023-02-21T08:34:40.060Z,99367.13
2023-02-21T08:37:17.553Z,99371.64
2023-02-21T08:39:50.998Z,99373.04
2023-02-21T08:42:23.458Z,99375.36
2023-02-21T08:44:55.483Z,99382.38
2023-02-21T08:47:27.910Z,99386.07
2023-02-21T08:50:00.268Z,99389.16
2023-02-21T08:52:32.414Z,99393.84
2023-02-21T08:55:04.634Z,99393.15
2023-02-21T08:57:36.871Z,99402.35
2023-02-21T09:00:14.853Z,99405.95
2023-02-21T09:02:46.984Z,99408.90
2023-02-21T09:05:24.525Z,99418.48
2023-02-21T09:07:59.564Z,99424.83
2023-02-21T09:10:35.104Z,99432.70
2023-02-21T09:13:07.342Z,99436.55
2023-02-21T09:15:39.442Z,99439.66
2023-02-21T09:18:13.787Z,99440.83
2023-02-21T09:20:52.410Z,99441.67
2023-02-21T09:23:25.096Z,99446.36
2023-02-21T09:25:58.246Z,99447.39
2023-02-21T09:28:32.204Z,99448.98
2023-02-21T09:31:04.436Z,99459.39
2023-02-21T09:33:41.442Z,99458.13
2023-02-21T09:36:14.150Z,99457.48
2023-02-21T09:38:46.700Z,99460.54
2023-02-21T09:41:19.303Z,99461.71
2023-02-21T09:43:54.557Z,99460.21
2023-02-21T09:46:34.686Z,99457.85
2023-02-21T09:49:11.951Z,99465.51
2023-02-21T09:51:44.867Z,99472.32
2023-02-21T09:54:25.632Z,99474.03
2023-02-21T09:57:04.557Z,99482.27
2023-02-21T09:59:36.859Z,99485.86
2023-02-21T10:02:33.755Z,99489.41
2023-02-21T10:05:18.329Z,99494.71
2023-02-21T10:08:01.875Z,99501.59
2023-02-21T10:10:40.963Z,99503.94
2023-02-21T10:13:24.805Z,99508.71
2023-02-21T10:16:01.672Z,99518.86
2023-02-21T10:18:40.957Z,99516.76
2023-02-21T10:21:23.775Z,99522.51
2023-02-21T10:23:59.979Z,99529.00
2023-02-21T10:26:36.912Z,99529.69
2023-02-21T10:29:21.946Z,99528.66
2023-02-21T10:32:02.558Z,99530.06
2023-02-21T10:34:37.152Z,99529.48
2023-02-21T10:37:25.437Z,99532.35
2023-02-21T10:40:02.166Z,99534.34
2023-02-21T10:42:41.822Z,99531.30
2023-02-21T10:45:18.159Z,99530.46
2023-02-21T10:48:02.613Z,99535.86
2023-02-21T10:50:44.099Z,99533.02
2023-02-21T10:53:31.059Z,99532.71
2023-02-21T10:56:27.362Z,99532.86
2023-02-21T10:59:06.471Z,99533.58
2023-02-21T11:01:44.173Z,99539.10
2023-02-21T11:04:29.815Z,99542.46
2023-02-21T11:07:06.526Z,99547.91
2023-02-21T11:09:42.740Z,99547.10
2023-02-21T11:12:24.082Z,99552.36
2023-02-21T11:15:19.332Z,99559.93
2023-02-21T11:18:07.017Z,99564.51
2023-02-21T11:20:38.885Z,99570.20
2023-02-21T11:23:23.795Z,99564.93
2023-02-21T11:26:07.326Z,99575.52
2023-02-21T11:28:43.556Z,99579.66
2023-02-21T11:31:28.493Z,99574.73
2023-02-21T11:34:04.340Z,99576.24
2023-02-21T11:36:38.184Z,99579.92
2023-02-21T11:39:19.291Z,99580.40
2023-02-21T11:41:53.256Z,99584.91
2023-02-21T11:44:35.310Z,99583.94
2023-02-21T11:47:15.282Z,99585.04
2023-02-21T11:50:00.177Z,99579.23
2023-02-21T11:52:36.117Z,99582.48
2023-02-21T11:55:16.444Z,99581.95
2023-02-21T11:57:56.906Z,99582.54
2023-02-21T12:00:39.647Z,99589.86
2023-02-21T12:03:33.359Z,99590.15
2023-02-21T12:06:13.690Z,99593.92
2023-02-21T12:08:52.968Z,99592.45
2023-02-21T12:11:50.532Z,99593.67
2023-02-21T12:14:36.080Z,99590.60
2023-02-21T12:17:17.881Z,99594.59
2023-02-21T12:20:19.692Z,99597.65
2023-02-21T12:23:09.014Z,99596.73
2023-02-21T12:25:54.998Z,99593.98
2023-02-21T17:11:44.515Z,99895.38
2023-02-21T17:14:17.400Z,99901.23
2023-02-21T17:16:49.832Z,99900.70
2023-02-21T17:19:23.785Z,99910.39
2023-02-21T17:21:58.636Z,99911.42
2023-02-21T17:24:31.000Z,99908.23
2023-02-21T17:27:04.966Z,99912.02
2023-02-21T17:29:38.138Z,99916.46
2023-02-21T17:32:10.607Z,99922.15
2023-02-21T17:34:43.899Z,99923.03
2023-02-21T17:37:16.348Z,99926.86
2023-02-21T17:39:52.511Z,99925.64
2023-02-21T17:42:25.981Z,99930.06
2023-02-21T17:44:59.812Z,99932.67
2023-02-21T17:47:32.759Z,99930.36
2023-02-21T17:50:05.203Z,99932.25
2023-02-21T17:52:37.904Z,99934.37
2023-02-21T17:55:15.970Z,99937.89
2023-02-21T17:57:46.729Z,99936.38
2023-02-21T18:00:24.750Z,99942.55
2023-02-21T18:02:58.330Z,99945.42
2023-02-21T18:05:30.678Z,99948.52
2023-02-21T18:08:02.941Z,99950.31
2023-02-21T18:10:35.041Z,99952.56
2023-02-21T18:13:07.527Z,99954.45
2023-02-21T18:15:40.072Z,99957.06
2023-02-21T18:18:12.184Z,99957.59
2023-02-21T18:20:46.112Z,99960.16
2023-02-21T18:23:18.844Z,99956.77
2023-02-21T18:25:50.905Z,99955.62
2023-02-21T18:28:23.358Z,99962.73
2023-02-21T18:30:55.900Z,99963.16
2023-02-21T18:33:28.838Z,99962.38
2023-02-21T18:36:02.272Z,99965.02
2023-02-21T18:38:34.343Z,99965.41
2023-02-21T18:41:10.051Z,99965.63
2023-02-21T18:43:43.510Z,99962.16
2023-02-21T18:46:18.182Z,99966.80
2023-02-21T18:48:51.703Z,99965.46
2023-02-21T18:51:24.373Z,99972.59
2023-02-21T18:53:56.625Z,99981.79
2023-02-21T18:56:29.334Z,99986.25
2023-02-21T18:59:02.394Z,99986.96
2023-02-21T19:01:34.626Z,99986.89
2023-02-21T19:04:07.036Z,99987.73
2023-02-21T19:06:39.113Z,99989.44
2023-02-21T19:09:11.727Z,99988.66
2023-02-21T19:11:44.055Z,99994.02
2023-02-21T19:14:16.385Z,99996.56
2023-02-21T19:16:48.762Z,100003.91
2023-02-21T19:19:20.801Z,100008.92
2023-02-21T19:21:53.092Z,100012.64
2023-02-21T19:24:25.824Z,100014.02
2023-02-21T19:26:58.526Z,100015.92
2023-02-21T19:29:31.190Z,100022.73
2023-02-21T19:32:05.141Z,100021.69
2023-02-21T19:34:37.665Z,100026.73
2023-02-21T19:37:10.605Z,100027.99
2023-02-21T19:39:42.932Z,100030.73
2023-02-21T19:42:15.584Z,100032.73
2023-02-21T19:44:48.329Z,100037.95
2023-02-21T19:47:20.739Z,100037.82
2023-02-21T19:49:53.356Z,100044.55
2023-02-21T19:52:25.581Z,100043.38
2023-02-21T19:54:57.938Z,100045.14
2023-02-21T19:57:30.455Z,100053.71
2023-02-21T20:00:02.788Z,100057.29
2023-02-21T20:02:37.715Z,100054.34
2023-02-21T20:05:14.210Z,100057.78
2023-02-21T20:07:46.780Z,100062.91
2023-02-21T20:10:25.413Z,100070.27
2023-02-21T20:12:59.567Z,100072.47
2023-02-21T20:15:31.890Z,100071.19
2023-02-21T20:18:04.618Z,100075.16
2023-02-21T20:20:36.812Z,100078.88
2023-02-21T20:23:09.198Z,100078.44
2023-02-21T20:25:41.796Z,100083.27
2023-02-21T20:28:14.109Z,100085.54
2023-02-21T20:30:46.813Z,100090.27
2023-02-21T20:33:20.947Z,100092.48
2023-02-21T20:35:53.602Z,100095.42
2023-02-21T20:38:25.909Z,100088.91
2023-02-21T20:41:00.709Z,100093.23
2023-02-21T20:43:32.777Z,100097.24
2023-02-21T20:46:05.438Z,100097.83
2023-02-21T20:48:37.704Z,100099.73
2023-02-21T20:51:09.924Z,100102.81
2023-02-21T20:53:42.861Z,100102.95
2023-02-21T20:56:15.329Z,100108.66
2023-02-21T20:58:47.468Z,100109.53
2023-02-21T21:01:19.979Z,100111.95
2023-02-21T21:03:52.260Z,100120.02
2023-02-21T21:06:26.443Z,100126.91
2023-02-21T21:09:01.896Z,100128.48
2023-02-21T21:11:35.291Z,100128.81
2023-02-21T21:14:07.840Z,100130.69
2023-02-21T21:16:40.471Z,100134.85
2023-02-21T21:19:12.898Z,100141.23
2023-02-21T21:21:44.855Z,100142.45
2023-02-21T21:24:17.072Z,100147.19
2023-02-21T21:26:53.444Z,100150.92
2023-02-21T21:29:25.973Z,100152.70
2023-02-21T21:31:58.622Z,100159.23
2023-02-21T21:34:32.376Z,100164.48
2023-02-21T21:37:06.469Z,100164.78
2023-02-21T21:39:39.031Z,100172.89
2023-02-21T21:42:11.830Z,100181.52
2023-02-21T21:44:48.807Z,100188.14
2023-02-21T21:47:22.987Z,100191.09
2023-02-21T21:49:55.890Z,100196.02
2023-02-21T21:52:28.338Z,100199.96
2023-02-21T21:55:02.388Z,100200.94
2023-02-21T21:57:36.085Z,100206.87
2023-02-21T22:00:21.576Z,100207.41
2023-02-21T22:02:57.581Z,100211.32
2023-02-21T22:05:35.543Z,100214.02
2023-02-21T22:08:08.013Z,100213.65
2023-02-21T22:10:40.783Z,100211.58
2023-02-21T22:13:14.690Z,100213.95
2023-02-21T22:15:47.890Z,100211.21
2023-02-21T22:18:21.746Z,100212.42
2023-02-21T22:20:54.207Z,100217.14
2023-02-21T22:23:26.208Z,100218.34
2023-02-21T22:25:58.705Z,100218.95
2023-02-21T22:28:31.104Z,100221.44
2023-02-21T22:31:04.697Z,100221.17
2023-02-21T22:33:36.710Z,100221.70
2023-02-21T22:36:12.060Z,100220.14
2023-02-21T22:38:47.940Z,100227.04
2023-02-21T22:41:24.095Z,100227.89
2023-02-21T22:43:59.480Z,100232.21
2023-02-21T22:46:41.937Z,100233.08
2023-02-21T22:49:16.957Z,100238.48
2023-02-21T22:51:49.458Z,100239.75
2023-02-21T22:54:21.551Z,100241.89
2023-02-21T22:56:55.184Z,100245.73
2023-02-21T22:59:27.199Z,100245.86
2023-02-21T23:02:00.138Z,100248.34
2023-02-21T23:04:37.889Z,100250.00
2023-02-21T23:07:10.361Z,100249.83
2023-02-21T23:09:42.474Z,100251.13
2023-02-21T23:12:15.271Z,100255.58
2023-02-21T23:14:48.252Z,100256.25
2023-02-21T23:17:20.412Z,100259.46
2023-02-21T23:19:52.716Z,100259.84
2023-02-21T23:22:25.277Z,100262.55
2023-02-21T23:24:57.337Z,100267.09
2023-02-21T23:27:33.862Z,100268.79
2023-02-21T23:30:08.881Z,100274.30
2023-02-21T23:32:41.034Z,100278.34
2023-02-21T23:35:16.373Z,100289.35
2023-02-21T23:37:53.426Z,100300.10
2023-02-21T23:40:28.357Z,100301.05
2023-02-21T23:43:01.101Z,100304.96
2023-02-21T23:45:33.350Z,100310.23
2023-02-21T23:48:08.010Z,100308.29
2023-02-21T23:50:40.266Z,100314.86
2023-02-21T23:53:14.675Z,100318.55
2023-02-21T23:55:48.472Z,100320.73
2023-02-21T23:58:21.988Z,100321.77
